Time;durP1;ratioP1;P1;durP2;ratioP2;P2;SDS_P1;SDS_P2;PMS_P1;PMS_P2;Temp;Humidity;BMP_temperature;BMP_pressure;BME280_temperature;BME280_humidity;BME280_pressure;Samples;Min_cycle;Max_cycle;Signal;HPM_P1;HPM_P2
2023/05/24 00:01:11;;;;;;;10.90;2.40;;;10.40;99.90;;;;;;5057415;28;20033;-76
2023/05/24 00:03:40;;;;;;;12.57;2.67;;;10.30;99.90;;;;;;5075066;28;20040;-75
2023/05/24 00:06:15;;;;;;;10.40;2.77;;;10.30;99.90;;;;;;5057709;28;20017;-76
2023/05/24 00:09:01;;;;;;;18.07;3.57;;;10.30;99.90;;;;;;5056958;28;20032;-76
2023/05/24 00:11:42;;;;;;;;;;;;;;;;;;;;;
2023/05/24 00:14:08;;;;;;;15.67;3.07;;;10.20;99.90;;;;;;5074480;28;20052;-76
2023/05/24 00:16:59;;;;;;;12.37;2.30;;;10.20;99.90;;;;;;5075268;28;20224;-76
2023/05/24 00:19:30;;;;;;;13.37;2.43;;;10.20;99.90;;;;;;5057014;28;20021;-78
2023/05/24 00:21:56;;;;;;;17.23;2.77;;;10.10;99.90;;;;;;5057610;28;20036;-76
2023/05/24 00:24:22;;;;;;;18.53;2.87;;;10.00;99.90;;;;;;5074420;28;20270;-76
2023/05/24 00:26:53;;;;;;;8.70;2.47;;;10.00;99.90;;;;;;5058036;28;20029;-75
2023/05/24 00:29:31;;;;;;;17.10;2.97;;;10.00;99.90;;;;;;5074510;28;20055;-75
2023/05/24 00:31:56;;;;;;;12.97;3.23;;;9.90;99.90;;;;;;5054375;28;20029;-76
2023/05/24 00:34:24;;;;;;;15.50;3.10;;;9.80;99.90;;;;;;5056824;28;20056;-75
2023/05/24 00:36:53;;;;;;;13.47;2.70;;;9.80;99.90;;;;;;5057498;28;20017;-76
2023/05/24 00:39:23;;;;;;;14.10;3.13;;;9.80;99.90;;;;;;5056454;28;20045;-76
2023/05/24 00:41:49;;;;;;;8.97;2.37;;;9.80;99.90;;;;;;5073343;28;20020;-76
2023/05/24 00:44:28;;;;;;;10.67;2.80;;;9.80;99.90;;;;;;5056290;28;20025;-76
2023/05/24 00:46:57;;;;;;;15.90;2.87;;;9.80;99.90;;;;;;5074330;28;20104;-75
2023/05/24 00:49:33;;;;;;;;;;;;;;;;;;;;;
2023/05/24 00:52:02;;;;;;;15.07;3.17;;;9.60;99.90;;;;;;5074048;28;21454;-77
2023/05/24 00:54:35;;;;;;;14.93;2.87;;;9.70;99.90;;;;;;5051752;28;20048;-76
2023/05/24 00:57:09;;;;;;;15.77;2.95;;;9.60;99.90;;;;;;5072066;28;20024;-76
2023/05/24 00:59:35;;;;;;;11.00;2.80;;;9.50;99.90;;;;;;5054816;28;20044;-76
2023/05/24 01:02:05;;;;;;;16.07;2.83;;;9.60;99.90;;;;;;5055779;28;20021;-76
2023/05/24 01:04:34;;;;;;;16.37;3.43;;;9.50;99.90;;;;;;5055203;28;20060;-76
2023/05/24 01:07:16;;;;;;;13.93;2.90;;;9.40;99.90;;;;;;5072468;28;20206;-75
2023/05/24 01:09:53;;;;;;;10.35;2.53;;;9.30;99.90;;;;;;5054441;28;20036;-76
2023/05/24 01:12:52;;;;;;;18.87;3.40;;;9.30;99.90;;;;;;5052040;28;20040;-76
2023/05/24 01:15:26;;;;;;;19.23;4.07;;;9.30;99.90;;;;;;5053728;28;20089;-76
2023/05/24 01:18:14;;;;;;;17.23;4.03;;;9.20;99.90;;;;;;5054827;28;20296;-76
2023/05/24 01:20:50;;;;;;;16.57;3.07;;;9.30;99.90;;;;;;5055488;28;20021;-76
2023/05/24 01:23:56;;;;;;;13.67;3.03;;;9.30;99.90;;;;;;5055322;28;20025;-76
2023/05/24 01:26:44;;;;;;;10.87;2.93;;;9.20;99.90;;;;;;5068916;28;20117;-76
2023/05/24 01:29:16;;;;;;;17.70;3.23;;;9.10;99.90;;;;;;5054756;28;20028;-75
2023/05/24 01:31:44;;;;;;;;;;;9.10;99.90;;;;;;5055447;28;20033;-76
2023/05/24 01:34:11;;;;;;;13.13;2.73;;;9.10;99.90;;;;;;5071170;28;19979;-76
2023/05/24 01:36:36;;;;;;;11.27;3.00;;;9.10;99.90;;;;;;5054104;28;20017;-76
2023/05/24 01:39:12;;;;;;;18.57;3.20;;;9.10;99.90;;;;;;5054433;28;20050;-76
2023/05/24 01:42:10;;;;;;;15.77;3.43;;;9.10;99.90;;;;;;5053387;28;20025;-76
2023/05/24 01:45:05;;;;;;;10.90;3.43;;;9.00;99.90;;;;;;5053743;28;20021;-76
2023/05/24 01:48:05;;;;;;;14.47;3.00;;;9.00;99.90;;;;;;5051834;28;20040;-76
2023/05/24 01:50:52;;;;;;;14.53;3.23;;;8.90;99.90;;;;;;5069101;28;20087;-76
2023/05/24 01:53:25;;;;;;;19.40;3.83;;;8.90;99.90;;;;;;5050817;28;21148;-77
2023/05/24 01:56:05;;;;;;;13.80;2.90;;;8.90;99.90;;;;;;5051476;28;20060;-76
2023/05/24 01:58:33;;;;;;;17.47;3.57;;;8.90;99.90;;;;;;5052783;28;20048;-77
2023/05/24 02:01:01;;;;;;;13.37;3.37;;;8.80;99.90;;;;;;5053095;28;20041;-76
2023/05/24 02:03:27;;;;;;;16.77;3.10;;;8.70;99.90;;;;;;5050675;28;20079;-76
2023/05/24 02:05:59;;;;;;;15.23;3.17;;;8.70;99.90;;;;;;5052049;28;20013;-76
2023/05/24 02:08:29;;;;;;;13.87;2.83;;;8.60;99.90;;;;;;5184215;22;20040;-76
2023/05/24 02:10:57;;;;;;;16.57;3.23;;;8.60;99.90;;;;;;5106490;28;20024;-76
2023/05/24 02:13:23;;;;;;;13.90;3.23;;;8.50;99.90;;;;;;5108053;28;20000;-76
2023/05/24 02:15:50;;;;;;;12.67;2.90;;;8.40;99.90;;;;;;5093508;28;20020;-76
2023/05/24 02:18:19;;;;;;;14.53;3.50;;;8.30;99.90;;;;;;5091160;28;20012;-77
2023/05/24 02:20:47;;;;;;;17.80;3.93;;;8.20;99.90;;;;;;5105906;28;20031;-76
2023/05/24 02:23:15;;;;;;;11.37;2.77;;;8.20;99.90;;;;;;5091945;28;20028;-77
2023/05/24 02:25:40;;;;;;;12.63;3.47;;;8.10;99.90;;;;;;5108157;28;20028;-76
2023/05/24 02:28:11;;;;;;;12.37;3.60;;;8.20;99.90;;;;;;5088769;28;20970;-76
2023/05/24 02:30:44;;;;;;;12.97;3.13;;;8.20;99.90;;;;;;5108582;28;20020;-77
2023/05/24 02:33:18;;;;;;;13.60;3.13;;;8.10;99.90;;;;;;5108002;28;20030;-76
2023/05/24 02:35:46;;;;;;;12.70;3.53;;;8.10;99.90;;;;;;5109265;28;20060;-76
2023/05/24 02:38:22;;;;;;;18.40;3.47;;;8.00;99.90;;;;;;5090844;28;20020;-76
2023/05/24 02:40:50;;;;;;;19.23;3.43;;;8.00;99.90;;;;;;5088432;28;20019;-77
2023/05/24 02:43:19;;;;;;;13.30;3.23;;;7.90;99.90;;;;;;5092291;28;20118;-76
2023/05/24 02:45:45;;;;;;;15.10;3.57;;;7.90;99.90;;;;;;5092940;28;20017;-76
2023/05/24 02:48:21;;;;;;;23.13;3.63;;;7.80;99.90;;;;;;5110048;28;20025;-76
2023/05/24 02:51:05;;;;;;;19.67;3.33;;;7.80;99.90;;;;;;5089362;28;20031;-76
2023/05/24 02:53:44;;;;;;;14.60;4.00;;;7.90;99.90;;;;;;5110060;28;20012;-75
2023/05/24 02:56:11;;;;;;;20.10;4.23;;;7.80;99.90;;;;;;5090793;28;20030;-76
2023/05/24 02:58:39;;;;;;;15.30;4.80;;;7.70;99.90;;;;;;5112302;28;20043;-77
2023/05/24 03:01:14;;;;;;;8.77;2.73;;;7.70;99.90;;;;;;5092259;28;20099;-76
2023/05/24 03:03:40;;;;;;;10.13;3.70;;;7.70;99.90;;;;;;5095094;28;20047;-76
2023/05/24 03:06:08;;;;;;;15.97;3.53;;;7.80;99.90;;;;;;5093323;28;20031;-76
2023/05/24 03:08:36;;;;;;;12.10;3.40;;;7.80;99.90;;;;;;5094679;28;20032;-75
2023/05/24 03:11:07;;;;;;;15.13;3.57;;;7.70;99.90;;;;;;5112897;28;20020;-76
2023/05/24 03:13:37;;;;;;;18.20;3.77;;;7.80;99.90;;;;;;5111430;28;20365;-76
2023/05/24 03:16:06;;;;;;;19.20;3.83;;;7.80;99.90;;;;;;5113789;28;20084;-76
2023/05/24 03:18:36;;;;;;;16.73;4.10;;;7.60;99.90;;;;;;5112284;28;20055;-76
2023/05/24 03:21:02;;;;;;;15.43;3.53;;;7.60;99.90;;;;;;5097015;28;20062;-77
2023/05/24 03:23:30;;;;;;;19.93;3.97;;;7.60;99.90;;;;;;5093016;28;20033;-77
2023/05/24 03:26:03;;;;;;;15.13;4.03;;;7.50;99.90;;;;;;5092804;28;20028;-76
2023/05/24 03:28:32;;;;;;;16.07;3.80;;;7.40;99.90;;;;;;5096574;28;20016;-76
2023/05/24 03:30:58;;;;;;;17.27;3.67;;;7.40;99.90;;;;;;5096027;28;20036;-76
2023/05/24 03:33:24;;;;;;;13.50;4.07;;;7.50;99.90;;;;;;5096009;28;20032;-76
2023/05/24 03:35:50;;;;;;;10.87;3.90;;;7.50;99.90;;;;;;5093635;28;20082;-76
2023/05/24 03:38:20;;;;;;;18.80;4.00;;;7.40;99.90;;;;;;5093786;28;20024;-76
2023/05/24 03:40:48;;;;;;;17.07;3.53;;;7.30;99.90;;;;;;5112869;28;20047;-75
2023/05/24 03:43:20;;;;;;;17.63;4.53;;;7.40;99.90;;;;;;5113286;28;20088;-76
2023/05/24 03:45:55;;;;;;;18.20;5.37;;;7.40;99.90;;;;;;5101807;28;20039;-76
2023/05/24 03:48:30;;;;;;;19.83;4.67;;;7.40;99.90;;;;;;5113061;28;20020;-76
2023/05/24 03:50:56;;;;;;;19.40;4.70;;;7.40;99.90;;;;;;5112752;28;20039;-76
2023/05/24 03:53:26;;;;;;;14.50;4.73;;;7.30;99.90;;;;;;5092905;28;20059;-76
2023/05/24 03:55:52;;;;;;;17.27;4.40;;;7.30;99.90;;;;;;5112959;28;21253;-76
2023/05/24 03:58:21;;;;;;;21.13;5.77;;;7.30;99.90;;;;;;5092362;28;20020;-76
2023/05/24 04:00:57;;;;;;;13.10;4.40;;;7.40;99.90;;;;;;5095706;28;20065;-76
2023/05/24 04:03:28;;;;;;;18.40;4.57;;;7.20;99.90;;;;;;5094101;28;20020;-76
2023/05/24 04:05:53;;;;;;;27.63;5.10;;;7.30;99.90;;;;;;5095045;28;20043;-76
2023/05/24 04:08:28;;;;;;;28.90;4.90;;;7.20;99.90;;;;;;5098095;28;20146;-76
2023/05/24 04:10:54;;;;;;;19.97;5.33;;;7.20;99.90;;;;;;5095939;28;20195;-76
2023/05/24 04:13:25;;;;;;;19.93;4.67;;;7.20;99.90;;;;;;5095213;28;20036;-76
2023/05/24 04:15:56;;;;;;;22.90;4.90;;;7.20;99.90;;;;;;5095715;28;20110;-76
2023/05/24 04:18:28;;;;;;;15.83;4.90;;;7.20;99.90;;;;;;5093403;28;20032;-76
2023/05/24 04:21:01;;;;;;;;;;;7.30;99.90;;;;;;5110868;28;20016;-76
2023/05/24 04:23:27;;;;;;;24.20;5.95;;;7.30;99.90;;;;;;5092140;28;19930;-76
2023/05/24 04:25:53;;;;;;;21.77;5.10;;;7.30;99.90;;;;;;5094349;28;20084;-76
2023/05/24 04:28:25;;;;;;;24.43;5.77;;;7.30;99.90;;;;;;5109825;28;20160;-76
2023/05/24 04:30:56;;;;;;;27.30;4.72;;;7.30;99.90;;;;;;5094029;28;20019;-76
2023/05/24 04:33:27;;;;;;;24.50;5.13;;;7.20;99.90;;;;;;5111082;28;20102;-75
2023/05/24 04:35:55;;;;;;;18.03;5.13;;;7.30;99.90;;;;;;5110546;28;20013;-75
2023/05/24 04:38:23;;;;;;;22.33;5.37;;;7.40;99.90;;;;;;5111281;28;20020;-75
2023/05/24 04:40:51;;;;;;;18.93;4.90;;;7.40;99.90;;;;;;5093129;28;20016;-75
2023/05/24 04:43:26;;;;;;;16.13;4.97;;;7.40;99.90;;;;;;5111569;28;20019;-76
2023/05/24 04:45:56;;;;;;;21.90;4.20;;;7.40;99.90;;;;;;5093230;28;20078;-76
2023/05/24 04:48:29;;;;;;;19.10;4.80;;;7.50;99.90;;;;;;5110520;28;20048;-75
2023/05/24 04:51:02;;;;;;;19.23;4.33;;;7.50;99.90;;;;;;5092210;28;20036;-76
2023/05/24 04:53:27;;;;;;;26.88;5.00;;;7.50;99.90;;;;;;5093971;28;20020;-76
2023/05/24 04:55:53;;;;;;;12.30;3.80;;;7.60;99.90;;;;;;5091937;28;20031;-75
2023/05/24 04:58:19;;;;;;;19.97;4.30;;;7.70;99.90;;;;;;5093115;28;20087;-76
2023/05/24 05:00:47;;;;;;;20.17;4.57;;;7.70;99.90;;;;;;5091893;28;20024;-75
2023/05/24 05:03:16;;;;;;;18.83;5.43;;;7.70;99.90;;;;;;5092645;28;20016;-76
2023/05/24 05:05:43;;;;;;;22.83;5.03;;;7.60;99.90;;;;;;5091217;28;20114;-75
2023/05/24 05:08:14;;;;;;;21.10;5.13;;;7.80;99.90;;;;;;5105915;28;20012;-75
2023/05/24 05:10:40;;;;;;;21.43;5.63;;;7.80;99.90;;;;;;5106573;28;20032;-75
2023/05/24 05:13:11;;;;;;;26.23;5.23;;;7.80;99.90;;;;;;5106954;28;20034;-76
2023/05/24 05:15:45;;;;;;;28.23;5.63;;;7.80;99.90;;;;;;5109183;28;20036;-76
2023/05/24 05:18:11;;;;;;;22.60;5.40;;;7.90;99.90;;;;;;5092181;28;20051;-76
2023/05/24 05:20:37;;;;;;;13.33;4.40;;;7.90;99.90;;;;;;5092174;28;20084;-75
2023/05/24 05:23:02;;;;;;;11.83;4.47;;;8.00;99.90;;;;;;5094513;28;20043;-75
2023/05/24 05:25:31;;;;;;;26.10;5.77;;;8.00;99.90;;;;;;5092162;28;20027;-77
2023/05/24 05:28:05;;;;;;;25.37;5.90;;;8.20;99.90;;;;;;5111297;28;20032;-78
2023/05/24 05:30:33;;;;;;;16.70;4.67;;;8.20;99.90;;;;;;5112022;28;20016;-78
2023/05/24 05:33:08;;;;;;;16.00;4.90;;;8.20;99.90;;;;;;5111874;28;20022;-77
2023/05/24 05:35:43;;;;;;;21.43;4.87;;;8.20;99.90;;;;;;5111048;28;20096;-78
2023/05/24 05:45:56;;;;;;;27.73;5.33;;;8.50;99.90;;;;;;5057396;28;20040;-77
2023/05/24 05:48:22;;;;;;;16.23;5.47;;;8.50;99.90;;;;;;5041862;28;20017;-77
2023/05/24 05:50:52;;;;;;;21.97;5.47;;;8.60;99.90;;;;;;5059022;28;20067;-77
2023/05/24 05:53:20;;;;;;;21.13;5.87;;;8.60;99.90;;;;;;5043006;28;20081;-77
2023/05/24 05:55:54;;;;;;;29.80;6.53;;;8.80;99.90;;;;;;5044351;28;20081;-77
2023/05/24 05:58:42;;;;;;;33.90;6.30;;;8.80;99.90;;;;;;5078892;23;20028;-76
2023/05/24 06:01:19;;;;;;;24.50;5.70;;;8.90;99.90;;;;;;5073848;28;20046;-75
2023/05/24 06:04:01;;;;;;;24.63;5.83;;;8.90;99.90;;;;;;5226495;22;20016;-74
2023/05/24 06:11:48;;;;;;;20.93;6.00;;;9.10;99.90;;;;;;5211338;22;20037;-75
2023/05/24 06:15:07;;;;;;;20.50;6.03;;;9.10;99.90;;;;;;5204537;23;20096;-73
2023/05/24 06:17:33;;;;;;;23.27;5.33;;;9.10;99.90;;;;;;5295702;22;20866;-76
2023/05/24 06:20:12;;;;;;;24.57;5.70;;;9.30;99.90;;;;;;5051882;28;20014;-74
2023/05/24 06:22:38;;;;;;;20.80;6.03;;;9.30;99.90;;;;;;5041244;28;20128;-76
2023/05/24 06:25:04;;;;;;;23.33;7.00;;;9.40;99.90;;;;;;5041961;28;20059;-74
2023/05/24 06:27:33;;;;;;;27.90;7.10;;;9.30;99.90;;;;;;5059604;28;20021;-75
2023/05/24 06:30:04;;;;;;;26.67;7.17;;;9.40;99.90;;;;;;5041769;28;20025;-75
2023/05/24 06:32:29;;;;;;;28.00;6.73;;;9.40;99.90;;;;;;5038272;28;20022;-75
2023/05/24 06:34:55;;;;;;;22.67;6.53;;;9.50;99.90;;;;;;5061403;28;20030;-75
2023/05/24 06:37:24;;;;;;;30.67;8.53;;;9.60;99.90;;;;;;5044930;28;20514;-74
2023/05/24 06:39:50;;;;;;;33.53;6.73;;;9.60;99.90;;;;;;5045110;28;20030;-75
2023/05/24 06:42:18;;;;;;;23.30;5.57;;;9.70;99.90;;;;;;5045335;28;20025;-75
2023/05/24 06:44:47;;;;;;;28.73;7.57;;;9.80;99.90;;;;;;5043809;28;20033;-75
2023/05/24 06:47:33;;;;;;;26.20;5.90;;;9.90;99.90;;;;;;5060503;28;20029;-74
2023/05/24 06:49:59;;;;;;;30.33;6.77;;;9.90;99.90;;;;;;5044083;28;20029;-74
2023/05/24 06:52:28;;;;;;;29.87;6.87;;;10.00;99.90;;;;;;5061943;28;20032;-75
2023/05/24 06:54:57;;;;;;;34.83;6.10;;;10.00;99.90;;;;;;5044674;28;20041;-74
2023/05/24 06:57:24;;;;;;;25.17;6.10;;;10.10;99.90;;;;;;5044371;28;20034;-74
2023/05/24 06:59:52;;;;;;;27.43;5.87;;;10.20;99.90;;;;;;5061628;28;20044;-74
2023/05/24 07:02:25;;;;;;;21.07;5.60;;;10.30;99.90;;;;;;5044335;28;20024;-74
2023/05/24 07:05:03;;;;;;;;;;;;;;;;;;;;;
2023/05/24 07:07:32;;;;;;;27.50;5.37;;;10.50;99.90;;;;;;5059889;28;20045;-75
2023/05/24 07:09:58;;;;;;;28.23;6.10;;;10.70;99.90;;;;;;5039090;28;20036;-74
2023/05/24 07:12:31;;;;;;;19.20;5.47;;;10.80;99.90;;;;;;5059652;28;20014;-75
2023/05/24 07:14:56;;;;;;;25.10;5.03;;;11.00;99.90;;;;;;5054139;28;20064;-74
2023/05/24 07:17:22;;;;;;;39.83;5.43;;;11.10;99.90;;;;;;5042014;28;20036;-75
2023/05/24 07:19:50;;;;;;;25.20;5.50;;;11.00;99.90;;;;;;5060746;28;20114;-75
2023/05/24 07:22:18;;;;;;;21.73;4.83;;;11.20;99.90;;;;;;5040663;28;20022;-75
2023/05/24 07:24:44;;;;;;;20.70;4.70;;;11.40;99.90;;;;;;5054957;28;20026;-75
2023/05/24 07:27:09;;;;;;;30.17;6.23;;;11.50;99.90;;;;;;5058458;28;21200;-74
2023/05/24 07:29:35;;;;;;;27.57;5.90;;;11.60;99.90;;;;;;5039344;28;20037;-76
2023/05/24 07:32:01;;;;;;;29.40;5.83;;;11.70;99.90;;;;;;5042922;28;20029;-75
2023/05/24 07:34:28;;;;;;;26.60;5.57;;;11.90;99.90;;;;;;5059920;28;20026;-74
2023/05/24 07:36:56;;;;;;;29.20;5.87;;;11.80;99.90;;;;;;5043563;28;20243;-75
2023/05/24 07:39:23;;;;;;;27.93;6.37;;;11.60;99.90;;;;;;5043641;28;20033;-74
2023/05/24 07:41:51;;;;;;;24.07;5.10;;;11.60;99.90;;;;;;5042006;28;20029;-81
2023/05/24 07:44:18;;;;;;;24.53;4.47;;;11.60;99.90;;;;;;5045170;28;20017;-74
2023/05/24 07:46:44;;;;;;;20.43;5.10;;;11.60;99.90;;;;;;5044555;28;20301;-74
2023/05/24 07:49:10;;;;;;;18.30;4.40;;;11.50;99.90;;;;;;5059990;28;20488;-76
2023/05/24 07:51:36;;;;;;;20.47;5.03;;;11.40;99.90;;;;;;5042716;28;20013;-76
2023/05/24 07:54:02;;;;;;;23.03;5.27;;;11.50;99.90;;;;;;5043295;28;20113;-75
2023/05/24 07:56:30;;;;;;;28.67;6.17;;;11.40;99.90;;;;;;5058568;28;20014;-75
2023/05/24 07:59:03;;;;;;;20.40;5.93;;;11.50;99.90;;;;;;5040633;28;20085;-76
2023/05/24 08:01:35;;;;;;;22.57;7.67;;;11.70;99.90;;;;;;5060109;28;20013;-76
2023/05/24 08:04:07;;;;;;;22.52;7.45;;;11.90;99.90;;;;;;5059635;28;20033;-73
2023/05/24 08:06:35;;;;;;;28.58;8.18;;;11.80;99.90;;;;;;5042190;28;20040;-75
2023/05/24 08:09:02;;;;;;;21.30;8.23;;;11.90;99.90;;;;;;5038266;28;20029;-76
2023/05/24 08:11:31;;;;;;;24.30;8.47;;;11.90;99.90;;;;;;5042127;28;20042;-76
2023/05/24 08:13:57;;;;;;;29.13;8.60;;;11.90;99.90;;;;;;5039120;28;20057;-75
2023/05/24 08:16:23;;;;;;;31.20;8.00;;;11.80;99.90;;;;;;5059034;28;20052;-76
2023/05/24 08:18:49;;;;;;;32.10;9.03;;;11.80;99.90;;;;;;5041597;28;20031;-75
2023/05/24 08:21:15;;;;;;;26.03;8.97;;;11.80;99.90;;;;;;5040830;28;20022;-75
2023/05/24 08:23:41;;;;;;;27.47;9.03;;;11.90;99.90;;;;;;5057964;28;20014;-75
2023/05/24 08:26:07;;;;;;;26.77;9.73;;;12.00;99.90;;;;;;5042000;28;20079;-77
2023/05/24 08:28:36;;;;;;;19.23;8.67;;;12.10;99.90;;;;;;5059587;28;20059;-75
2023/05/24 08:31:03;;;;;;;20.97;8.90;;;12.20;99.90;;;;;;5043405;28;20018;-76
2023/05/24 08:33:28;;;;;;;29.67;8.67;;;12.30;99.90;;;;;;5043089;28;20025;-74
2023/05/24 08:35:55;;;;;;;26.57;8.83;;;12.20;99.90;;;;;;5059856;28;20029;-75
2023/05/24 08:38:20;;;;;;;26.70;9.40;;;12.20;99.90;;;;;;5041112;28;20040;-78
2023/05/24 08:40:47;;;;;;;27.20;9.13;;;12.30;99.90;;;;;;5057162;28;20084;-79
2023/05/24 08:43:14;;;;;;;27.97;8.27;;;12.40;99.90;;;;;;5057040;28;20095;-75
2023/05/24 08:45:40;;;;;;;27.73;9.17;;;12.40;99.90;;;;;;5056501;28;20021;-77
2023/05/24 08:48:08;;;;;;;24.97;8.60;;;12.60;99.90;;;;;;5224273;23;20061;-75
2023/05/24 08:50:34;;;;;;;30.90;9.70;;;12.70;99.90;;;;;;5058159;28;20036;-75
2023/05/24 08:53:03;;;;;;;30.10;9.67;;;12.50;99.90;;;;;;5051811;28;20041;-75
2023/05/24 08:55:32;;;;;;;28.67;9.40;;;12.50;99.90;;;;;;5057094;28;20100;-74
2023/05/24 08:57:59;;;;;;;21.70;9.03;;;12.40;99.90;;;;;;5055359;28;20083;-74
2023/05/24 09:00:25;;;;;;;31.87;8.87;;;12.40;99.90;;;;;;5057491;28;20054;-74
2023/05/24 09:02:52;;;;;;;23.90;8.80;;;12.30;99.90;;;;;;5057020;28;20036;-75
2023/05/24 09:05:20;;;;;;;37.33;11.43;;;12.30;99.90;;;;;;5073331;28;20044;-74
2023/05/24 09:07:47;;;;;;;28.13;12.37;;;12.40;99.90;;;;;;5057267;28;20028;-75
2023/05/24 09:10:26;;;;;;;28.50;12.00;;;12.40;99.90;;;;;;5197445;22;20023;-75
2023/05/24 09:13:02;;;;;;;25.60;12.20;;;12.50;99.90;;;;;;5055370;28;20044;-75
2023/05/24 09:15:28;;;;;;;30.37;12.27;;;12.50;99.90;;;;;;5055267;28;20072;-74
2023/05/24 09:17:58;;;;;;;28.03;12.00;;;12.70;99.90;;;;;;5034942;28;20019;-75
2023/05/24 09:20:31;;;;;;;29.10;12.20;;;12.60;99.90;;;;;;5027200;28;20033;-77
2023/05/24 09:23:03;;;;;;;27.33;11.77;;;12.70;99.90;;;;;;5030925;28;20064;-74
2023/05/24 09:25:32;;;;;;;29.42;12.55;;;12.60;99.90;;;;;;5051811;28;20052;-77
2023/05/24 09:28:04;;;;;;;26.83;12.17;;;12.70;99.90;;;;;;5032265;28;20037;-74
2023/05/24 09:30:30;;;;;;;26.77;10.88;;;12.80;99.90;;;;;;5032001;28;20089;-74
2023/05/24 09:32:56;;;;;;;47.83;12.40;;;13.00;99.90;;;;;;5034717;28;20013;-75
2023/05/24 09:35:27;;;;;;;24.80;11.57;;;13.40;99.90;;;;;;5051519;28;20048;-74
2023/05/24 09:38:20;;;;;;;30.35;12.73;;;13.70;99.90;;;;;;5031776;28;20025;-74
2023/05/24 09:40:49;;;;;;;25.73;13.10;;;13.70;99.90;;;;;;5033482;28;20065;-74
2023/05/24 09:43:19;;;;;;;33.33;12.02;;;13.70;99.90;;;;;;5032175;28;20152;-76
2023/05/24 09:45:48;;;;;;;27.23;13.30;;;13.70;99.90;;;;;;5052974;28;20045;-75
2023/05/24 09:48:18;;;;;;;32.58;13.93;;;13.90;99.90;;;;;;5050631;28;20021;-74
2023/05/24 09:51:08;;;;;;;28.27;11.98;;;13.90;99.90;;;;;;5051475;28;20032;-76
2023/05/24 09:53:45;;;;;;;27.48;11.95;;;14.00;99.90;;;;;;5033559;28;20010;-74
2023/05/24 09:56:12;;;;;;;32.75;14.00;;;14.10;99.90;;;;;;5023804;28;20037;-76
2023/05/24 09:58:38;;;;;;;23.23;12.32;;;13.90;99.90;;;;;;5035109;28;20032;-74
2023/05/24 10:01:11;;;;;;;26.23;12.73;;;13.90;99.90;;;;;;5035609;28;20026;-75
2023/05/24 10:03:57;;;;;;;22.65;11.80;;;13.90;99.90;;;;;;5036749;28;20014;-74
2023/05/24 10:06:32;;;;;;;22.88;11.45;;;13.90;99.90;;;;;;5034343;28;20028;-75
2023/05/24 10:09:01;;;;;;;19.52;10.32;;;14.00;99.90;;;;;;5024703;28;20113;-74
2023/05/24 10:11:35;;;;;;;25.73;11.20;;;14.20;99.90;;;;;;5033855;28;20025;-73
2023/05/24 10:14:07;;;;;;;20.95;8.90;;;14.40;99.90;;;;;;5030596;28;20116;-73
2023/05/24 10:16:37;;;;;;;17.15;8.68;;;14.50;99.90;;;;;;5032461;28;20049;-74
2023/05/24 10:19:03;;;;;;;27.90;10.63;;;14.30;99.90;;;;;;5034599;28;20040;-75
2023/05/24 10:21:36;;;;;;;24.88;9.63;;;14.40;99.90;;;;;;5050858;28;20717;-73
2023/05/24 10:24:05;;;;;;;26.10;10.23;;;14.30;99.90;;;;;;5051643;28;20029;-73
2023/05/24 10:26:36;;;;;;;27.15;10.05;;;14.20;99.90;;;;;;5035196;28;20034;-74
2023/05/24 10:29:10;;;;;;;29.60;10.82;;;14.10;99.90;;;;;;5035181;28;20037;-74
2023/05/24 10:31:39;;;;;;;26.55;9.68;;;14.20;99.90;;;;;;5032233;28;20041;-73
2023/05/24 10:34:06;;;;;;;21.77;10.30;;;14.10;99.90;;;;;;5035270;28;20045;-74
2023/05/24 10:36:38;;;;;;;24.73;9.88;;;14.00;99.90;;;;;;5031490;28;20056;-74
2023/05/24 10:39:08;;;;;;;25.13;9.73;;;14.00;99.90;;;;;;5051015;28;20029;-76
2023/05/24 10:41:41;;;;;;;19.15;9.13;;;14.00;99.90;;;;;;5051691;28;20068;-77
2023/05/24 10:44:12;;;;;;;18.48;7.63;;;14.10;99.90;;;;;;5033867;28;20029;-73
2023/05/24 10:47:02;;;;;;;22.00;8.57;;;14.10;99.90;;;;;;5052087;28;20009;-75
2023/05/24 10:49:27;;;;;;;23.33;8.25;;;14.20;99.90;;;;;;5024796;28;20105;-74
2023/05/24 10:52:10;;;;;;;20.52;8.52;;;14.40;99.90;;;;;;5050320;28;20068;-74
2023/05/24 10:54:37;;;;;;;21.50;8.50;;;14.50;99.90;;;;;;5029449;28;20048;-74
2023/05/24 10:57:03;;;;;;;23.92;8.30;;;14.60;99.90;;;;;;5050837;28;20033;-73
2023/05/24 10:59:37;;;;;;;19.23;7.20;;;14.50;99.90;;;;;;5030063;28;20046;-76
2023/05/24 11:02:08;;;;;;;24.27;8.65;;;14.60;99.90;;;;;;5030028;28;20025;-74
2023/05/24 11:04:39;;;;;;;16.08;6.07;;;14.50;99.90;;;;;;5051833;28;20022;-74
2023/05/24 11:07:08;;;;;;;20.95;7.65;;;14.70;99.90;;;;;;5033313;28;20203;-75
2023/05/24 11:09:44;;;;;;;15.93;6.82;;;14.70;99.90;;;;;;5033515;28;20014;-75
2023/05/24 11:12:13;;;;;;;15.05;5.80;;;14.70;99.90;;;;;;5033380;28;20026;-73
2023/05/24 11:14:47;;;;;;;20.00;6.25;;;15.10;99.90;;;;;;5029565;28;20052;-76
2023/05/24 11:17:15;;;;;;;21.08;5.75;;;15.10;99.90;;;;;;5035068;28;20036;-74
2023/05/24 11:19:52;;;;;;;15.18;5.10;;;15.10;99.90;;;;;;5034552;28;20029;-74
2023/05/24 11:22:24;;;;;;;17.40;5.68;;;14.90;99.90;;;;;;5037214;28;20477;-74
2023/05/24 11:24:51;;;;;;;16.27;5.00;;;14.90;99.90;;;;;;5055462;28;20068;-73
2023/05/24 11:27:17;;;;;;;20.50;6.22;;;14.70;99.90;;;;;;5035056;28;20014;-74
2023/05/24 11:29:44;;;;;;;22.80;5.85;;;14.70;99.90;;;;;;5035006;28;20074;-74
2023/05/24 11:32:15;;;;;;;21.17;6.10;;;14.60;99.90;;;;;;5038401;28;20250;-73
2023/05/24 11:34:43;;;;;;;12.65;6.13;;;14.40;99.90;;;;;;5040751;28;20049;-73
2023/05/24 11:37:10;;;;;;;18.88;6.40;;;14.40;99.90;;;;;;5038062;28;20029;-73
2023/05/24 11:39:36;;;;;;;17.92;5.82;;;14.50;99.90;;;;;;5035293;28;20076;-76
2023/05/24 11:42:06;;;;;;;16.30;5.90;;;14.50;99.90;;;;;;5034609;28;20022;-74
2023/05/24 11:44:32;;;;;;;20.17;6.40;;;14.60;99.90;;;;;;5037340;28;20026;-72
2023/05/24 11:47:05;;;;;;;21.58;6.43;;;14.80;99.90;;;;;;5055481;28;20097;-74
2023/05/24 11:49:31;;;;;;;17.75;6.55;;;15.00;99.90;;;;;;5033294;28;20025;-73
2023/05/24 11:52:01;;;;;;;22.77;6.25;;;15.00;99.90;;;;;;5054842;28;20044;-73
2023/05/24 11:54:27;;;;;;;19.55;6.45;;;14.70;99.90;;;;;;5054034;28;20041;-74
2023/05/24 11:56:54;;;;;;;19.15;6.20;;;14.60;99.90;;;;;;5031613;28;20017;-73
2023/05/24 11:59:27;;;;;;;21.38;6.15;;;14.60;99.90;;;;;;5046919;28;20016;-74
2023/05/24 12:02:02;;;;;;;18.33;5.13;;;14.60;99.90;;;;;;5034425;28;20033;-75
2023/05/24 12:04:29;;;;;;;17.25;5.35;;;14.50;99.90;;;;;;5054679;28;20040;-74
2023/05/24 12:06:54;;;;;;;16.10;5.05;;;14.40;99.90;;;;;;5037207;28;20031;-75
2023/05/24 12:09:21;;;;;;;21.38;5.63;;;14.40;99.90;;;;;;5071320;28;20041;-74
2023/05/24 12:11:54;;;;;;;19.63;6.30;;;14.30;99.90;;;;;;5072808;23;20100;-77
2023/05/24 12:14:23;;;;;;;20.07;5.57;;;14.20;99.90;;;;;;5058051;28;20041;-76
2023/05/24 12:16:53;;;;;;;19.27;5.60;;;14.20;99.90;;;;;;5058318;28;20040;-78
2023/05/24 12:19:21;;;;;;;16.73;5.53;;;14.10;99.90;;;;;;5073671;28;20021;-75
2023/05/24 12:21:53;;;;;;;19.03;5.70;;;14.10;99.90;;;;;;5057878;28;20043;-78
2023/05/24 12:24:22;;;;;;;19.38;5.38;;;14.10;99.90;;;;;;5057956;28;20039;-77
2023/05/24 12:26:48;;;;;;;19.20;5.43;;;14.10;99.90;;;;;;5140092;23;20063;-76
2023/05/24 12:29:14;;;;;;;20.10;6.30;;;14.00;99.90;;;;;;5057639;28;20016;-77
2023/05/24 12:31:41;;;;;;;26.70;6.03;;;14.10;99.90;;;;;;5058197;28;20029;-77
2023/05/24 12:34:22;;;;;;;21.63;6.30;;;14.10;99.90;;;;;;5070967;28;20064;-76
2023/05/24 12:36:54;;;;;;;15.23;5.95;;;14.30;99.90;;;;;;5073031;28;20025;-76
2023/05/24 12:39:32;;;;;;;14.57;4.82;;;14.50;99.90;;;;;;5073335;28;20029;-77
2023/05/24 12:42:05;;;;;;;17.30;5.72;;;14.60;99.90;;;;;;5067047;28;20265;-74
2023/05/24 12:44:51;;;;;;;16.63;6.10;;;14.70;99.90;;;;;;5073241;28;20013;-75
2023/05/24 12:47:17;;;;;;;13.05;4.97;;;15.00;99.90;;;;;;5053967;28;20051;-75
2023/05/24 12:49:46;;;;;;;19.70;5.28;;;15.20;99.90;;;;;;5054061;28;20025;-74
2023/05/24 12:52:14;;;;;;;14.85;5.45;;;15.40;99.90;;;;;;5069811;28;20084;-75
2023/05/24 12:54:42;;;;;;;44.83;6.15;;;15.60;99.90;;;;;;5069903;28;20561;-75
2023/05/24 12:57:07;;;;;;;15.43;5.20;;;15.90;99.90;;;;;;5051477;28;20070;-74
2023/05/24 12:59:40;;;;;;;18.25;4.88;;;16.20;99.90;;;;;;5068405;28;20060;-74
2023/05/24 13:02:09;;;;;;;16.63;4.88;;;16.40;99.90;;;;;;5049502;28;20024;-74
2023/05/24 13:04:45;;;;;;;16.85;5.20;;;16.90;99.90;;;;;;5055193;28;20029;-75
2023/05/24 13:07:11;;;;;;;15.45;5.00;;;16.70;99.90;;;;;;5068410;28;20025;-75
2023/05/24 13:09:44;;;;;;;13.20;4.97;;;16.80;99.90;;;;;;5068555;28;20100;-74
2023/05/24 13:12:10;;;;;;;15.90;6.38;;;16.70;99.90;;;;;;5068855;28;20017;-74
2023/05/24 13:14:43;;;;;;;18.00;6.35;;;16.70;99.90;;;;;;5069284;28;20037;-75
2023/05/24 13:17:09;;;;;;;21.05;6.30;;;16.50;99.70;;;;;;5069531;28;20093;-75